Terminal Aerodrome Forecast
Issued by NWS Des Moines, IA

Home | Current Version | Previous Version | Text Only | Print | Product List | Glossary On
Versions: 1 2 3 4 5 6 7 8 9 10 11 12 13 14 15 16 17
000
FTUS43 KDMX 160530
TAFALO
TAF
KALO 160530Z 1606/1706 11010KT P6SM SCT150
     FM160800 11014KT P6SM FEW040 BKN150
     FM161500 16019G25KT P6SM SCT050 BKN100
     FM170100 22014KT P6SM SCT035 BKN050=

USA.gov is the U.S. government's official web portal to all federal, state and local government web resources and services.